sensor_id;sensor_type;location;lat;lon;timestamp;P1;durP1;ratioP1;P2;durP2;ratioP2
60472;SDS011;46318;52.716;6.444;2024-02-28T00:00:28;84.55;;;39.22;;
60472;SDS011;46318;52.716;6.444;2024-02-28T00:02:54;119.70;;;40.53;;
60472;SDS011;46318;52.716;6.444;2024-02-28T00:05:20;95.07;;;39.70;;
60472;SDS011;46318;52.716;6.444;2024-02-28T00:07:45;140.35;;;42.83;;
60472;SDS011;46318;52.716;6.444;2024-02-28T00:10:12;108.90;;;41.40;;
60472;SDS011;46318;52.716;6.444;2024-02-28T00:12:41;114.97;;;42.42;;
60472;SDS011;46318;52.716;6.444;2024-02-28T00:15:07;141.98;;;42.03;;
60472;SDS011;46318;52.716;6.444;2024-02-28T00:17:38;103.80;;;41.33;;
60472;SDS011;46318;52.716;6.444;2024-02-28T00:20:06;121.97;;;44.03;;
60472;SDS011;46318;52.716;6.444;2024-02-28T00:22:35;160.82;;;46.45;;
60472;SDS011;46318;52.716;6.444;2024-02-28T00:25:04;131.77;;;44.30;;
60472;SDS011;46318;52.716;6.444;2024-02-28T00:27:32;104.38;;;42.60;;
60472;SDS011;46318;52.716;6.444;2024-02-28T00:29:59;133.20;;;47.22;;
60472;SDS011;46318;52.716;6.444;2024-02-28T00:32:25;111.90;;;46.45;;
60472;SDS011;46318;52.716;6.444;2024-02-28T00:34:51;118.13;;;44.75;;
60472;SDS011;46318;52.716;6.444;2024-02-28T00:37:16;90.43;;;44.55;;
60472;SDS011;46318;52.716;6.444;2024-02-28T00:39:43;88.82;;;43.88;;
60472;SDS011;46318;52.716;6.444;2024-02-28T00:42:10;93.85;;;45.67;;
60472;SDS011;46318;52.716;6.444;2024-02-28T00:44:36;108.70;;;45.03;;
60472;SDS011;46318;52.716;6.444;2024-02-28T00:47:02;114.40;;;44.03;;
60472;SDS011;46318;52.716;6.444;2024-02-28T00:49:27;102.60;;;43.22;;
60472;SDS011;46318;52.716;6.444;2024-02-28T00:51:53;91.43;;;41.25;;
60472;SDS011;46318;52.716;6.444;2024-02-28T00:54:19;101.20;;;41.17;;
60472;SDS011;46318;52.716;6.444;2024-02-28T00:56:46;95.30;;;42.10;;
60472;SDS011;46318;52.716;6.444;2024-02-28T00:59:12;95.55;;;41.70;;
60472;SDS011;46318;52.716;6.444;2024-02-28T01:01:38;87.00;;;40.35;;
60472;SDS011;46318;52.716;6.444;2024-02-28T01:04:05;93.25;;;41.28;;
60472;SDS011;46318;52.716;6.444;2024-02-28T01:06:31;80.55;;;39.50;;
60472;SDS011;46318;52.716;6.444;2024-02-28T01:08:57;80.78;;;39.10;;
60472;SDS011;46318;52.716;6.444;2024-02-28T01:11:22;82.25;;;39.83;;
60472;SDS011;46318;52.716;6.444;2024-02-28T01:13:50;96.25;;;40.30;;
60472;SDS011;46318;52.716;6.444;2024-02-28T01:16:16;83.85;;;39.55;;
60472;SDS011;46318;52.716;6.444;2024-02-28T01:18:42;83.78;;;40.08;;
60472;SDS011;46318;52.716;6.444;2024-02-28T01:21:08;82.10;;;38.88;;
60472;SDS011;46318;52.716;6.444;2024-02-28T01:23:34;76.22;;;37.92;;
60472;SDS011;46318;52.716;6.444;2024-02-28T01:26:00;75.43;;;40.38;;
60472;SDS011;46318;52.716;6.444;2024-02-28T01:28:29;84.95;;;38.17;;
60472;SDS011;46318;52.716;6.444;2024-02-28T01:30:54;97.05;;;39.17;;
60472;SDS011;46318;52.716;6.444;2024-02-28T01:33:20;93.07;;;40.35;;
60472;SDS011;46318;52.716;6.444;2024-02-28T01:35:46;79.40;;;40.97;;
60472;SDS011;46318;52.716;6.444;2024-02-28T01:38:12;80.80;;;40.45;;
60472;SDS011;46318;52.716;6.444;2024-02-28T01:40:38;87.32;;;41.58;;
60472;SDS011;46318;52.716;6.444;2024-02-28T01:43:11;88.38;;;41.08;;
60472;SDS011;46318;52.716;6.444;2024-02-28T01:45:37;71.95;;;38.60;;
60472;SDS011;46318;52.716;6.444;2024-02-28T01:48:03;85.40;;;40.33;;
60472;SDS011;46318;52.716;6.444;2024-02-28T01:50:31;76.65;;;39.78;;
60472;SDS011;46318;52.716;6.444;2024-02-28T01:52:59;78.97;;;39.70;;
60472;SDS011;46318;52.716;6.444;2024-02-28T01:55:25;67.20;;;38.33;;
60472;SDS011;46318;52.716;6.444;2024-02-28T01:57:52;85.55;;;40.90;;
60472;SDS011;46318;52.716;6.444;2024-02-28T02:00:18;81.22;;;40.58;;
60472;SDS011;46318;52.716;6.444;2024-02-28T02:02:44;75.93;;;39.22;;
60472;SDS011;46318;52.716;6.444;2024-02-28T02:05:10;71.97;;;38.90;;
60472;SDS011;46318;52.716;6.444;2024-02-28T02:07:36;82.75;;;39.65;;
60472;SDS011;46318;52.716;6.444;2024-02-28T02:10:03;91.57;;;42.28;;
60472;SDS011;46318;52.716;6.444;2024-02-28T02:12:33;88.60;;;42.38;;
60472;SDS011;46318;52.716;6.444;2024-02-28T02:14:59;107.75;;;43.97;;
60472;SDS011;46318;52.716;6.444;2024-02-28T02:17:24;95.55;;;42.58;;
60472;SDS011;46318;52.716;6.444;2024-02-28T02:19:50;91.10;;;43.20;;
60472;SDS011;46318;52.716;6.444;2024-02-28T02:22:18;109.38;;;45.50;;
60472;SDS011;46318;52.716;6.444;2024-02-28T02:24:45;94.65;;;43.78;;
60472;SDS011;46318;52.716;6.444;2024-02-28T02:27:11;122.25;;;46.03;;
60472;SDS011;46318;52.716;6.444;2024-02-28T02:29:37;94.53;;;45.53;;
60472;SDS011;46318;52.716;6.444;2024-02-28T02:32:03;99.22;;;44.63;;
60472;SDS011;46318;52.716;6.444;2024-02-28T02:34:29;90.43;;;45.00;;
60472;SDS011;46318;52.716;6.444;2024-02-28T02:36:55;89.25;;;45.67;;
60472;SDS011;46318;52.716;6.444;2024-02-28T02:39:21;95.75;;;46.50;;
60472;SDS011;46318;52.716;6.444;2024-02-28T02:41:47;95.10;;;45.78;;
60472;SDS011;46318;52.716;6.444;2024-02-28T02:44:12;107.80;;;48.45;;
60472;SDS011;46318;52.716;6.444;2024-02-28T02:46:38;99.43;;;45.15;;
60472;SDS011;46318;52.716;6.444;2024-02-28T02:49:04;89.68;;;45.85;;
60472;SDS011;46318;52.716;6.444;2024-02-28T02:51:30;88.00;;;45.40;;
60472;SDS011;46318;52.716;6.444;2024-02-28T02:53:55;84.45;;;45.45;;
60472;SDS011;46318;52.716;6.444;2024-02-28T02:56:21;80.25;;;45.17;;
60472;SDS011;46318;52.716;6.444;2024-02-28T02:58:47;85.22;;;46.50;;
60472;SDS011;46318;52.716;6.444;2024-02-28T03:01:13;94.60;;;47.15;;
60472;SDS011;46318;52.716;6.444;2024-02-28T03:03:39;90.57;;;46.58;;
60472;SDS011;46318;52.716;6.444;2024-02-28T03:06:06;96.72;;;48.67;;
60472;SDS011;46318;52.716;6.444;2024-02-28T03:08:31;112.80;;;48.17;;
60472;SDS011;46318;52.716;6.444;2024-02-28T03:10:58;101.43;;;48.47;;
60472;SDS011;46318;52.716;6.444;2024-02-28T03:13:23;94.47;;;47.42;;
60472;SDS011;46318;52.716;6.444;2024-02-28T03:15:49;93.97;;;47.25;;
60472;SDS011;46318;52.716;6.444;2024-02-28T03:18:15;96.28;;;48.50;;
60472;SDS011;46318;52.716;6.444;2024-02-28T03:20:41;96.00;;;45.40;;
60472;SDS011;46318;52.716;6.444;2024-02-28T03:23:07;90.82;;;45.63;;
60472;SDS011;46318;52.716;6.444;2024-02-28T03:25:33;84.97;;;45.22;;
60472;SDS011;46318;52.716;6.444;2024-02-28T03:27:59;82.85;;;44.83;;
60472;SDS011;46318;52.716;6.444;2024-02-28T03:30:26;91.30;;;46.72;;
60472;SDS011;46318;52.716;6.444;2024-02-28T03:32:52;102.05;;;46.42;;
60472;SDS011;46318;52.716;6.444;2024-02-28T03:35:18;89.07;;;46.10;;
60472;SDS011;46318;52.716;6.444;2024-02-28T03:37:43;78.55;;;42.35;;
60472;SDS011;46318;52.716;6.444;2024-02-28T03:40:09;95.75;;;44.90;;
60472;SDS011;46318;52.716;6.444;2024-02-28T03:42:35;82.85;;;44.60;;
60472;SDS011;46318;52.716;6.444;2024-02-28T03:45:01;85.88;;;43.60;;
60472;SDS011;46318;52.716;6.444;2024-02-28T03:47:27;93.88;;;42.58;;
60472;SDS011;46318;52.716;6.444;2024-02-28T03:49:53;83.15;;;42.13;;
60472;SDS011;46318;52.716;6.444;2024-02-28T03:52:22;82.47;;;41.70;;
60472;SDS011;46318;52.716;6.444;2024-02-28T03:54:48;75.40;;;41.90;;
60472;SDS011;46318;52.716;6.444;2024-02-28T03:57:14;80.93;;;42.15;;
60472;SDS011;46318;52.716;6.444;2024-02-28T03:59:40;95.13;;;45.60;;
60472;SDS011;46318;52.716;6.444;2024-02-28T04:02:07;80.35;;;43.17;;
60472;SDS011;46318;52.716;6.444;2024-02-28T04:04:34;93.07;;;45.65;;
60472;SDS011;46318;52.716;6.444;2024-02-28T04:06:59;83.55;;;45.17;;
60472;SDS011;46318;52.716;6.444;2024-02-28T04:09:25;86.55;;;43.83;;
60472;SDS011;46318;52.716;6.444;2024-02-28T04:11:51;82.65;;;45.08;;
60472;SDS011;46318;52.716;6.444;2024-02-28T04:14:17;85.55;;;44.30;;
60472;SDS011;46318;52.716;6.444;2024-02-28T04:16:43;89.53;;;45.38;;
60472;SDS011;46318;52.716;6.444;2024-02-28T04:19:10;91.65;;;46.45;;
60472;SDS011;46318;52.716;6.444;2024-02-28T04:21:37;83.07;;;44.50;;
60472;SDS011;46318;52.716;6.444;2024-02-28T04:24:03;91.35;;;47.00;;
60472;SDS011;46318;52.716;6.444;2024-02-28T04:26:34;88.00;;;48.15;;
60472;SDS011;46318;52.716;6.444;2024-02-28T04:29:01;82.28;;;45.03;;
60472;SDS011;46318;52.716;6.444;2024-02-28T04:31:30;82.43;;;43.90;;
60472;SDS011;46318;52.716;6.444;2024-02-28T04:33:56;83.57;;;44.15;;
60472;SDS011;46318;52.716;6.444;2024-02-28T04:36:22;80.20;;;44.65;;
60472;SDS011;46318;52.716;6.444;2024-02-28T04:38:48;83.93;;;44.42;;
60472;SDS011;46318;52.716;6.444;2024-02-28T04:41:13;73.53;;;41.63;;
60472;SDS011;46318;52.716;6.444;2024-02-28T04:43:39;77.07;;;43.55;;
60472;SDS011;46318;52.716;6.444;2024-02-28T04:46:05;74.82;;;43.13;;
60472;SDS011;46318;52.716;6.444;2024-02-28T04:48:31;76.72;;;43.85;;
60472;SDS011;46318;52.716;6.444;2024-02-28T04:50:57;82.00;;;44.78;;
60472;SDS011;46318;52.716;6.444;2024-02-28T04:53:23;81.38;;;44.65;;
60472;SDS011;46318;52.716;6.444;2024-02-28T04:55:48;73.70;;;42.35;;
60472;SDS011;46318;52.716;6.444;2024-02-28T04:58:15;72.28;;;42.10;;
60472;SDS011;46318;52.716;6.444;2024-02-28T05:00:41;73.20;;;41.17;;
60472;SDS011;46318;52.716;6.444;2024-02-28T05:03:06;73.57;;;41.85;;
60472;SDS011;46318;52.716;6.444;2024-02-28T05:05:32;69.00;;;41.17;;
60472;SDS011;46318;52.716;6.444;2024-02-28T05:07:58;74.85;;;42.50;;
60472;SDS011;46318;52.716;6.444;2024-02-28T05:10:24;71.18;;;41.30;;
60472;SDS011;46318;52.716;6.444;2024-02-28T05:12:50;75.32;;;43.22;;
60472;SDS011;46318;52.716;6.444;2024-02-28T05:15:16;71.38;;;42.03;;
60472;SDS011;46318;52.716;6.444;2024-02-28T05:17:42;69.25;;;42.17;;
60472;SDS011;46318;52.716;6.444;2024-02-28T05:20:08;72.82;;;41.80;;
60472;SDS011;46318;52.716;6.444;2024-02-28T05:22:34;76.63;;;43.03;;
60472;SDS011;46318;52.716;6.444;2024-02-28T05:25:00;77.85;;;43.60;;
60472;SDS011;46318;52.716;6.444;2024-02-28T05:27:26;74.78;;;42.78;;
60472;SDS011;46318;52.716;6.444;2024-02-28T05:29:52;75.75;;;43.03;;
60472;SDS011;46318;52.716;6.444;2024-02-28T05:32:18;74.93;;;42.03;;
60472;SDS011;46318;52.716;6.444;2024-02-28T05:34:44;75.22;;;44.25;;
60472;SDS011;46318;52.716;6.444;2024-02-28T05:37:11;76.10;;;40.65;;
60472;SDS011;46318;52.716;6.444;2024-02-28T05:39:36;73.03;;;42.45;;
60472;SDS011;46318;52.716;6.444;2024-02-28T05:42:02;70.75;;;42.15;;
60472;SDS011;46318;52.716;6.444;2024-02-28T05:44:29;74.90;;;41.45;;
60472;SDS011;46318;52.716;6.444;2024-02-28T05:46:55;70.88;;;41.97;;
60472;SDS011;46318;52.716;6.444;2024-02-28T05:49:20;69.70;;;41.15;;
60472;SDS011;46318;52.716;6.444;2024-02-28T05:51:47;71.80;;;42.30;;
60472;SDS011;46318;52.716;6.444;2024-02-28T05:54:13;71.47;;;40.92;;
60472;SDS011;46318;52.716;6.444;2024-02-28T05:56:39;67.57;;;42.05;;
60472;SDS011;46318;52.716;6.444;2024-02-28T05:59:05;68.38;;;41.97;;
60472;SDS011;46318;52.716;6.444;2024-02-28T06:01:30;71.47;;;42.13;;
60472;SDS011;46318;52.716;6.444;2024-02-28T06:03:56;71.75;;;41.88;;
60472;SDS011;46318;52.716;6.444;2024-02-28T06:06:22;68.30;;;40.55;;
60472;SDS011;46318;52.716;6.444;2024-02-28T06:08:47;71.05;;;41.83;;
60472;SDS011;46318;52.716;6.444;2024-02-28T06:11:13;69.75;;;41.13;;
60472;SDS011;46318;52.716;6.444;2024-02-28T06:13:42;76.25;;;42.50;;
60472;SDS011;46318;52.716;6.444;2024-02-28T06:16:13;66.38;;;41.75;;
60472;SDS011;46318;52.716;6.444;2024-02-28T06:18:40;65.97;;;40.45;;
60472;SDS011;46318;52.716;6.444;2024-02-28T06:21:06;71.55;;;41.75;;
60472;SDS011;46318;52.716;6.444;2024-02-28T06:23:32;73.05;;;43.28;;
60472;SDS011;46318;52.716;6.444;2024-02-28T06:25:57;79.30;;;44.17;;
60472;SDS011;46318;52.716;6.444;2024-02-28T06:28:23;76.03;;;43.67;;
60472;SDS011;46318;52.716;6.444;2024-02-28T06:30:49;83.80;;;44.50;;
60472;SDS011;46318;52.716;6.444;2024-02-28T06:33:15;71.55;;;42.75;;
60472;SDS011;46318;52.716;6.444;2024-02-28T06:35:41;73.32;;;43.28;;
60472;SDS011;46318;52.716;6.444;2024-02-28T06:38:06;76.45;;;43.35;;
60472;SDS011;46318;52.716;6.444;2024-02-28T06:40:33;72.55;;;43.58;;
60472;SDS011;46318;52.716;6.444;2024-02-28T06:42:59;91.18;;;47.83;;
60472;SDS011;46318;52.716;6.444;2024-02-28T06:45:26;78.88;;;45.15;;
60472;SDS011;46318;52.716;6.444;2024-02-28T06:47:52;80.43;;;44.92;;
60472;SDS011;46318;52.716;6.444;2024-02-28T06:50:20;74.97;;;43.75;;
60472;SDS011;46318;52.716;6.444;2024-02-28T06:52:48;78.70;;;45.23;;
60472;SDS011;46318;52.716;6.444;2024-02-28T06:55:18;76.28;;;45.25;;
60472;SDS011;46318;52.716;6.444;2024-02-28T06:57:50;81.30;;;45.42;;
60472;SDS011;46318;52.716;6.444;2024-02-28T07:00:18;80.78;;;45.20;;
60472;SDS011;46318;52.716;6.444;2024-02-28T07:02:54;83.40;;;47.08;;
60472;SDS011;46318;52.716;6.444;2024-02-28T07:05:21;82.22;;;46.30;;
60472;SDS011;46318;52.716;6.444;2024-02-28T07:07:47;77.78;;;45.03;;
60472;SDS011;46318;52.716;6.444;2024-02-28T07:10:13;81.63;;;46.40;;
60472;SDS011;46318;52.716;6.444;2024-02-28T07:12:39;84.47;;;47.63;;
60472;SDS011;46318;52.716;6.444;2024-02-28T07:15:05;81.80;;;48.92;;
60472;SDS011;46318;52.716;6.444;2024-02-28T07:17:31;86.68;;;47.42;;
60472;SDS011;46318;52.716;6.444;2024-02-28T07:19:57;84.20;;;49.17;;
60472;SDS011;46318;52.716;6.444;2024-02-28T07:22:22;81.82;;;47.25;;
60472;SDS011;46318;52.716;6.444;2024-02-28T07:24:48;83.45;;;47.67;;
60472;SDS011;46318;52.716;6.444;2024-02-28T07:27:14;82.85;;;47.13;;
60472;SDS011;46318;52.716;6.444;2024-02-28T07:29:40;83.30;;;48.67;;
60472;SDS011;46318;52.716;6.444;2024-02-28T07:32:06;84.57;;;47.65;;
60472;SDS011;46318;52.716;6.444;2024-02-28T07:34:32;81.47;;;47.60;;
60472;SDS011;46318;52.716;6.444;2024-02-28T07:36:59;78.97;;;47.33;;
60472;SDS011;46318;52.716;6.444;2024-02-28T07:39:25;77.53;;;46.28;;
60472;SDS011;46318;52.716;6.444;2024-02-28T07:41:52;77.18;;;46.83;;
60472;SDS011;46318;52.716;6.444;2024-02-28T07:44:17;88.38;;;49.45;;
60472;SDS011;46318;52.716;6.444;2024-02-28T07:46:43;84.03;;;47.88;;
60472;SDS011;46318;52.716;6.444;2024-02-28T07:49:10;82.53;;;48.47;;
60472;SDS011;46318;52.716;6.444;2024-02-28T07:51:36;75.07;;;46.67;;
60472;SDS011;46318;52.716;6.444;2024-02-28T07:54:01;80.85;;;48.28;;
60472;SDS011;46318;52.716;6.444;2024-02-28T07:56:28;76.90;;;47.78;;
60472;SDS011;46318;52.716;6.444;2024-02-28T07:58:55;72.53;;;46.35;;
60472;SDS011;46318;52.716;6.444;2024-02-28T08:01:21;76.25;;;46.80;;
60472;SDS011;46318;52.716;6.444;2024-02-28T08:03:47;74.03;;;47.28;;
60472;SDS011;46318;52.716;6.444;2024-02-28T08:06:13;77.57;;;47.17;;
60472;SDS011;46318;52.716;6.444;2024-02-28T08:08:39;87.30;;;49.40;;
60472;SDS011;46318;52.716;6.444;2024-02-28T08:11:04;82.20;;;49.03;;
60472;SDS011;46318;52.716;6.444;2024-02-28T08:13:31;77.25;;;48.35;;
60472;SDS011;46318;52.716;6.444;2024-02-28T08:15:58;77.20;;;48.25;;
60472;SDS011;46318;52.716;6.444;2024-02-28T08:18:24;73.57;;;46.63;;
60472;SDS011;46318;52.716;6.444;2024-02-28T08:20:50;73.93;;;47.42;;
60472;SDS011;46318;52.716;6.444;2024-02-28T08:23:17;78.57;;;49.22;;
60472;SDS011;46318;52.716;6.444;2024-02-28T08:25:43;75.50;;;47.08;;
60472;SDS011;46318;52.716;6.444;2024-02-28T08:28:09;77.88;;;48.20;;
60472;SDS011;46318;52.716;6.444;2024-02-28T08:30:35;73.15;;;47.60;;
60472;SDS011;46318;52.716;6.444;2024-02-28T08:33:00;78.63;;;48.40;;
60472;SDS011;46318;52.716;6.444;2024-02-28T08:35:26;76.55;;;48.22;;
60472;SDS011;46318;52.716;6.444;2024-02-28T08:37:53;80.07;;;47.75;;
60472;SDS011;46318;52.716;6.444;2024-02-28T08:40:19;86.55;;;50.08;;
60472;SDS011;46318;52.716;6.444;2024-02-28T08:42:44;73.85;;;48.35;;
60472;SDS011;46318;52.716;6.444;2024-02-28T08:45:11;94.13;;;53.58;;
60472;SDS011;46318;52.716;6.444;2024-02-28T08:47:37;80.95;;;50.13;;
60472;SDS011;46318;52.716;6.444;2024-02-28T08:50:03;82.13;;;49.08;;
60472;SDS011;46318;52.716;6.444;2024-02-28T08:52:29;76.38;;;49.63;;
60472;SDS011;46318;52.716;6.444;2024-02-28T08:54:55;78.75;;;49.78;;
60472;SDS011;46318;52.716;6.444;2024-02-28T08:57:21;77.70;;;49.28;;
60472;SDS011;46318;52.716;6.444;2024-02-28T08:59:48;75.60;;;49.00;;
60472;SDS011;46318;52.716;6.444;2024-02-28T09:02:15;75.55;;;49.78;;
60472;SDS011;46318;52.716;6.444;2024-02-28T09:04:40;80.93;;;50.10;;
60472;SDS011;46318;52.716;6.444;2024-02-28T09:07:07;76.53;;;49.92;;
60472;SDS011;46318;52.716;6.444;2024-02-28T09:09:33;83.10;;;52.38;;
60472;SDS011;46318;52.716;6.444;2024-02-28T09:12:03;202.57;;;145.65;;
60472;SDS011;46318;52.716;6.444;2024-02-28T09:14:29;86.60;;;60.88;;
60472;SDS011;46318;52.716;6.444;2024-02-28T09:16:54;86.28;;;57.42;;
60472;SDS011;46318;52.716;6.444;2024-02-28T09:19:28;75.90;;;52.50;;
60472;SDS011;46318;52.716;6.444;2024-02-28T09:21:55;71.20;;;53.03;;
60472;SDS011;46318;52.716;6.444;2024-02-28T09:24:20;72.95;;;52.40;;
60472;SDS011;46318;52.716;6.444;2024-02-28T09:26:46;84.38;;;60.63;;
60472;SDS011;46318;52.716;6.444;2024-02-28T09:29:12;77.43;;;55.65;;
60472;SDS011;46318;52.716;6.444;2024-02-28T09:31:38;77.97;;;56.20;;
60472;SDS011;46318;52.716;6.444;2024-02-28T09:34:03;72.43;;;51.38;;
60472;SDS011;46318;52.716;6.444;2024-02-28T09:36:32;70.30;;;50.08;;
60472;SDS011;46318;52.716;6.444;2024-02-28T09:39:06;70.68;;;50.95;;
60472;SDS011;46318;52.716;6.444;2024-02-28T09:41:31;68.30;;;49.65;;
60472;SDS011;46318;52.716;6.444;2024-02-28T09:43:57;69.60;;;50.25;;
60472;SDS011;46318;52.716;6.444;2024-02-28T09:46:25;69.85;;;49.60;;
60472;SDS011;46318;52.716;6.444;2024-02-28T09:48:51;64.88;;;47.75;;
60472;SDS011;46318;52.716;6.444;2024-02-28T09:51:21;70.53;;;51.17;;
60472;SDS011;46318;52.716;6.444;2024-02-28T09:53:49;88.80;;;64.68;;
60472;SDS011;46318;52.716;6.444;2024-02-28T09:56:16;135.68;;;97.13;;
60472;SDS011;46318;52.716;6.444;2024-02-28T09:58:42;141.65;;;102.47;;
60472;SDS011;46318;52.716;6.444;2024-02-28T10:01:08;79.95;;;58.03;;
60472;SDS011;46318;52.716;6.444;2024-02-28T10:03:39;78.35;;;57.22;;
60472;SDS011;46318;52.716;6.444;2024-02-28T10:06:07;72.90;;;56.75;;
60472;SDS011;46318;52.716;6.444;2024-02-28T10:08:33;67.38;;;54.25;;
60472;SDS011;46318;52.716;6.444;2024-02-28T10:11:00;77.32;;;57.88;;
60472;SDS011;46318;52.716;6.444;2024-02-28T10:13:26;84.72;;;61.17;;
60472;SDS011;46318;52.716;6.444;2024-02-28T10:15:52;111.90;;;82.80;;
60472;SDS011;46318;52.716;6.444;2024-02-28T10:18:19;94.97;;;70.53;;
60472;SDS011;46318;52.716;6.444;2024-02-28T10:20:45;88.70;;;67.53;;
60472;SDS011;46318;52.716;6.444;2024-02-28T10:23:12;90.60;;;69.15;;
60472;SDS011;46318;52.716;6.444;2024-02-28T10:25:42;84.70;;;62.85;;
60472;SDS011;46318;52.716;6.444;2024-02-28T10:28:10;77.93;;;59.03;;
60472;SDS011;46318;52.716;6.444;2024-02-28T10:30:43;84.88;;;67.40;;
60472;SDS011;46318;52.716;6.444;2024-02-28T10:33:13;79.53;;;60.72;;
60472;SDS011;46318;52.716;6.444;2024-02-28T10:35:40;85.75;;;64.45;;
60472;SDS011;46318;52.716;6.444;2024-02-28T10:38:10;86.55;;;66.88;;
60472;SDS011;46318;52.716;6.444;2024-02-28T10:40:37;71.47;;;55.67;;
60472;SDS011;46318;52.716;6.444;2024-02-28T10:43:07;83.88;;;67.50;;
60472;SDS011;46318;52.716;6.444;2024-02-28T10:45:37;75.72;;;61.78;;
60472;SDS011;46318;52.716;6.444;2024-02-28T10:48:04;85.60;;;67.00;;
60472;SDS011;46318;52.716;6.444;2024-02-28T10:50:30;79.25;;;64.47;;
60472;SDS011;46318;52.716;6.444;2024-02-28T10:53:03;75.90;;;60.40;;
60472;SDS011;46318;52.716;6.444;2024-02-28T10:55:33;78.70;;;66.00;;
60472;SDS011;46318;52.716;6.444;2024-02-28T10:58:03;69.75;;;59.00;;
60472;SDS011;46318;52.716;6.444;2024-02-28T11:00:34;64.32;;;55.55;;
60472;SDS011;46318;52.716;6.444;2024-02-28T11:03:03;58.53;;;52.10;;
60472;SDS011;46318;52.716;6.444;2024-02-28T11:05:49;59.03;;;52.00;;
60472;SDS011;46318;52.716;6.444;2024-02-28T11:08:22;56.88;;;49.83;;
60472;SDS011;46318;52.716;6.444;2024-02-28T11:10:56;55.38;;;49.38;;
60472;SDS011;46318;52.716;6.444;2024-02-28T11:13:29;55.05;;;49.10;;
60472;SDS011;46318;52.716;6.444;2024-02-28T11:16:08;57.80;;;51.47;;
60472;SDS011;46318;52.716;6.444;2024-02-28T11:18:35;58.70;;;50.90;;
60472;SDS011;46318;52.716;6.444;2024-02-28T11:21:01;53.80;;;47.85;;
60472;SDS011;46318;52.716;6.444;2024-02-28T11:23:38;52.70;;;46.88;;
60472;SDS011;46318;52.716;6.444;2024-02-28T11:26:03;53.45;;;47.05;;
60472;SDS011;46318;52.716;6.444;2024-02-28T11:28:29;53.95;;;46.85;;
60472;SDS011;46318;52.716;6.444;2024-02-28T11:30:56;52.70;;;47.03;;
60472;SDS011;46318;52.716;6.444;2024-02-28T11:33:22;50.00;;;44.65;;
60472;SDS011;46318;52.716;6.444;2024-02-28T11:35:57;53.17;;;47.63;;
60472;SDS011;46318;52.716;6.444;2024-02-28T11:38:26;54.17;;;48.50;;
60472;SDS011;46318;52.716;6.444;2024-02-28T11:40:52;52.00;;;46.53;;
60472;SDS011;46318;52.716;6.444;2024-02-28T11:43:20;53.30;;;47.47;;
60472;SDS011;46318;52.716;6.444;2024-02-28T11:45:46;50.58;;;45.47;;
60472;SDS011;46318;52.716;6.444;2024-02-28T11:48:15;159.57;;;117.45;;
60472;SDS011;46318;52.716;6.444;2024-02-28T11:50:42;65.10;;;55.90;;
60472;SDS011;46318;52.716;6.444;2024-02-28T11:53:08;57.40;;;51.30;;
60472;SDS011;46318;52.716;6.444;2024-02-28T11:55:34;52.67;;;47.15;;
60472;SDS011;46318;52.716;6.444;2024-02-28T11:58:07;58.58;;;52.42;;
60472;SDS011;46318;52.716;6.444;2024-02-28T12:00:49;65.05;;;58.08;;
60472;SDS011;46318;52.716;6.444;2024-02-28T12:03:25;64.22;;;57.33;;
60472;SDS011;46318;52.716;6.444;2024-02-28T12:05:52;64.90;;;58.05;;
60472;SDS011;46318;52.716;6.444;2024-02-28T12:08:21;58.58;;;52.45;;
60472;SDS011;46318;52.716;6.444;2024-02-28T12:10:47;55.60;;;49.78;;
60472;SDS011;46318;52.716;6.444;2024-02-28T12:13:17;65.78;;;58.78;;
60472;SDS011;46318;52.716;6.444;2024-02-28T12:15:43;56.42;;;50.33;;
60472;SDS011;46318;52.716;6.444;2024-02-28T12:18:10;68.35;;;60.55;;
60472;SDS011;46318;52.716;6.444;2024-02-28T12:20:36;94.93;;;82.28;;
60472;SDS011;46318;52.716;6.444;2024-02-28T12:23:03;63.70;;;56.65;;
60472;SDS011;46318;52.716;6.444;2024-02-28T12:25:30;64.43;;;57.53;;
60472;SDS011;46318;52.716;6.444;2024-02-28T12:27:56;74.40;;;66.57;;
60472;SDS011;46318;52.716;6.444;2024-02-28T12:30:22;64.55;;;57.72;;
60472;SDS011;46318;52.716;6.444;2024-02-28T12:32:48;63.70;;;57.00;;
60472;SDS011;46318;52.716;6.444;2024-02-28T12:35:14;74.00;;;66.28;;
60472;SDS011;46318;52.716;6.444;2024-02-28T12:37:39;60.25;;;54.10;;
60472;SDS011;46318;52.716;6.444;2024-02-28T12:40:05;62.00;;;55.67;;
60472;SDS011;46318;52.716;6.444;2024-02-28T12:42:33;56.80;;;50.75;;
60472;SDS011;46318;52.716;6.444;2024-02-28T12:44:59;56.00;;;49.85;;
60472;SDS011;46318;52.716;6.444;2024-02-28T12:47:25;50.55;;;45.15;;
60472;SDS011;46318;52.716;6.444;2024-02-28T12:49:51;54.67;;;48.75;;
60472;SDS011;46318;52.716;6.444;2024-02-28T12:52:16;57.45;;;51.50;;
60472;SDS011;46318;52.716;6.444;2024-02-28T12:54:43;62.13;;;55.47;;
60472;SDS011;46318;52.716;6.444;2024-02-28T12:57:08;53.80;;;47.95;;
60472;SDS011;46318;52.716;6.444;2024-02-28T12:59:37;48.63;;;43.35;;
60472;SDS011;46318;52.716;6.444;2024-02-28T13:02:04;47.97;;;42.97;;
60472;SDS011;46318;52.716;6.444;2024-02-28T13:04:30;49.75;;;42.55;;
60472;SDS011;46318;52.716;6.444;2024-02-28T13:06:55;47.40;;;42.30;;
60472;SDS011;46318;52.716;6.444;2024-02-28T13:09:21;49.92;;;44.55;;
60472;SDS011;46318;52.716;6.444;2024-02-28T13:11:48;53.67;;;44.30;;
60472;SDS011;46318;52.716;6.444;2024-02-28T13:14:14;50.30;;;44.88;;
60472;SDS011;46318;52.716;6.444;2024-02-28T13:16:40;51.47;;;46.00;;
60472;SDS011;46318;52.716;6.444;2024-02-28T13:19:06;48.30;;;43.10;;
60472;SDS011;46318;52.716;6.444;2024-02-28T13:21:32;47.50;;;40.13;;
60472;SDS011;46318;52.716;6.444;2024-02-28T13:23:58;42.05;;;37.35;;
60472;SDS011;46318;52.716;6.444;2024-02-28T13:26:24;43.17;;;37.55;;
60472;SDS011;46318;52.716;6.444;2024-02-28T13:28:50;41.25;;;36.85;;
60472;SDS011;46318;52.716;6.444;2024-02-28T13:31:16;43.50;;;38.70;;
60472;SDS011;46318;52.716;6.444;2024-02-28T13:33:42;41.80;;;36.67;;
60472;SDS011;46318;52.716;6.444;2024-02-28T13:36:08;44.42;;;39.58;;
60472;SDS011;46318;52.716;6.444;2024-02-28T13:38:34;42.00;;;37.15;;
60472;SDS011;46318;52.716;6.444;2024-02-28T13:41:01;47.45;;;39.55;;
60472;SDS011;46318;52.716;6.444;2024-02-28T13:43:35;45.75;;;40.42;;
60472;SDS011;46318;52.716;6.444;2024-02-28T13:46:01;50.88;;;44.63;;
60472;SDS011;46318;52.716;6.444;2024-02-28T13:48:27;53.67;;;46.65;;
60472;SDS011;46318;52.716;6.444;2024-02-28T13:50:58;49.75;;;44.55;;
60472;SDS011;46318;52.716;6.444;2024-02-28T13:53:25;43.83;;;38.92;;
60472;SDS011;46318;52.716;6.444;2024-02-28T13:55:50;40.70;;;36.20;;
60472;SDS011;46318;52.716;6.444;2024-02-28T13:58:17;40.00;;;35.45;;
60472;SDS011;46318;52.716;6.444;2024-02-28T14:00:46;44.47;;;39.67;;
60472;SDS011;46318;52.716;6.444;2024-02-28T14:03:12;43.17;;;36.90;;
60472;SDS011;46318;52.716;6.444;2024-02-28T14:05:38;43.67;;;38.97;;
60472;SDS011;46318;52.716;6.444;2024-02-28T14:08:04;42.53;;;37.83;;
60472;SDS011;46318;52.716;6.444;2024-02-28T14:10:34;44.58;;;38.08;;
60472;SDS011;46318;52.716;6.444;2024-02-28T14:12:59;48.33;;;39.40;;
60472;SDS011;46318;52.716;6.444;2024-02-28T14:15:26;42.42;;;37.83;;
60472;SDS011;46318;52.716;6.444;2024-02-28T14:17:52;46.90;;;39.42;;